createdAt,value
2023-04-10T00:00:00.340Z,60.51
2023-04-10T00:02:29.361Z,59.98
2023-04-10T00:04:57.269Z,60.82
2023-04-10T00:07:25.174Z,60.69
2023-04-10T00:09:52.656Z,60.64
2023-04-10T00:12:37.996Z,60.03
2023-04-10T00:15:37.650Z,61.75
2023-04-10T00:18:24.801Z,59.65
2023-04-10T00:21:07.174Z,60.48
2023-04-10T00:23:51.509Z,60.75
2023-04-10T00:26:20.973Z,61.10
2023-04-10T00:28:48.897Z,61.39
2023-04-10T00:31:16.437Z,61.12
2023-04-10T00:33:44.204Z,62.32
2023-04-10T00:36:13.046Z,62.13
2023-04-10T00:38:41.607Z,61.84
2023-04-10T00:41:10.023Z,61.64
2023-04-10T00:43:39.578Z,61.54
2023-04-10T00:46:07.269Z,62.32
2023-04-10T00:48:35.927Z,61.70
2023-04-10T00:51:04.435Z,61.87
2023-04-10T00:53:31.948Z,62.01
2023-04-10T00:55:59.596Z,61.88
2023-04-10T00:58:27.532Z,61.83
2023-04-10T01:00:55.604Z,61.27
2023-04-10T01:03:23.899Z,60.14
2023-04-10T01:06:06.839Z,60.63
2023-04-10T01:08:43.348Z,61.72
2023-04-10T01:11:13.578Z,61.78
2023-04-10T01:13:48.795Z,61.71
2023-04-10T01:16:19.807Z,62.22
2023-04-10T01:18:53.232Z,62.09
2023-04-10T01:21:23.955Z,62.81
2023-04-10T01:23:54.631Z,62.17
2023-04-10T01:26:41.624Z,62.53
2023-04-10T01:29:10.024Z,63.81
2023-04-10T01:31:39.428Z,63.45
2023-04-10T01:34:20.054Z,64.16
2023-04-10T01:36:53.968Z,63.42
2023-04-10T01:39:22.299Z,63.46
2023-04-10T01:41:51.914Z,63.69
2023-04-10T01:44:21.819Z,63.89
2023-04-10T01:46:50.100Z,63.82
2023-04-10T01:49:17.812Z,64.27
2023-04-10T01:51:45.255Z,64.13
2023-04-10T01:54:14.211Z,64.31
2023-04-10T01:56:42.748Z,63.72
2023-04-10T01:59:12.615Z,63.25
2023-04-10T02:01:41.029Z,63.51
2023-04-10T02:04:08.930Z,62.73
2023-04-10T02:07:03.826Z,63.02
2023-04-10T02:09:52.255Z,62.77
2023-04-10T02:12:24.246Z,62.77
2023-04-10T02:14:51.905Z,62.43
2023-04-10T02:17:22.033Z,61.81
2023-04-10T02:19:51.813Z,61.92
2023-04-10T02:22:19.285Z,62.28
2023-04-10T02:24:46.654Z,61.83
2023-04-10T02:27:14.499Z,61.75
2023-04-10T02:29:42.535Z,61.81
2023-04-10T02:32:10.813Z,61.31
2023-04-10T02:34:39.564Z,61.47
2023-04-10T02:37:07.028Z,62.20
2023-04-10T02:39:35.150Z,61.56
2023-04-10T02:42:02.843Z,61.60
2023-04-10T02:44:30.967Z,61.76
2023-04-10T02:46:58.765Z,61.51
2023-04-10T02:49:27.316Z,61.72
2023-04-10T02:51:54.835Z,61.98
2023-04-10T02:54:22.755Z,62.24
2023-04-10T02:56:50.494Z,59.84
2023-04-10T02:59:19.259Z,60.24
2023-04-10T03:01:47.386Z,60.65
2023-04-10T03:04:18.015Z,61.01
2023-04-10T03:09:24.558Z,61.30
2023-04-10T03:11:54.183Z,61.26
2023-04-10T03:14:23.383Z,62.18
2023-04-10T03:16:50.712Z,61.47
2023-04-10T03:19:18.237Z,61.27
2023-04-10T03:21:57.708Z,61.75
2023-04-10T03:24:26.627Z,62.13
2023-04-10T03:26:54.908Z,61.52
2023-04-10T03:29:23.681Z,61.44
2023-04-10T03:31:51.183Z,60.99
2023-04-10T03:34:20.721Z,60.85
2023-04-10T03:36:48.896Z,60.94
2023-04-10T03:39:17.055Z,60.84
2023-04-10T03:41:45.355Z,60.53
2023-04-10T03:44:14.159Z,60.81
2023-04-10T03:46:41.618Z,60.53
2023-04-10T03:49:09.571Z,60.71
2023-04-10T03:51:38.077Z,61.26
2023-04-10T03:54:08.699Z,60.64
2023-04-10T03:56:37.310Z,60.71
2023-04-10T03:59:06.389Z,60.57
2023-04-10T04:01:35.939Z,60.84
2023-04-10T04:04:04.626Z,61.34
2023-04-10T04:06:38.853Z,61.01
2023-04-10T04:09:07.000Z,61.60
2023-04-10T04:11:35.447Z,61.20
2023-04-10T04:14:03.853Z,60.65
2023-04-10T04:16:35.132Z,60.66
2023-04-10T04:19:03.814Z,60.97
2023-04-10T04:21:34.976Z,60.97
2023-04-10T04:24:03.084Z,61.90
2023-04-10T04:26:31.442Z,61.52
2023-04-10T04:29:01.430Z,61.19
2023-04-10T04:31:33.461Z,61.14
2023-04-10T04:34:04.085Z,61.22
2023-04-10T04:36:33.267Z,61.88
2023-04-10T04:39:04.503Z,62.28
2023-04-10T04:41:32.748Z,62.90
2023-04-10T04:44:01.881Z,63.02
2023-04-10T04:46:31.963Z,62.69
2023-04-10T04:49:00.730Z,62.13
2023-04-10T04:51:37.718Z,62.05
2023-04-10T04:54:09.649Z,62.48
2023-04-10T04:56:41.950Z,60.93
2023-04-10T04:59:10.566Z,61.42
2023-04-10T05:01:39.458Z,61.99
2023-04-10T05:04:07.557Z,62.16
2023-04-10T05:06:35.537Z,62.00
2023-04-10T05:09:11.709Z,61.74
2023-04-10T05:11:43.960Z,62.20
2023-04-10T05:14:15.096Z,62.25
2023-04-10T05:16:47.587Z,61.49
2023-04-10T05:19:15.665Z,61.86
2023-04-10T05:21:48.777Z,62.17
2023-04-10T05:24:26.747Z,62.20
2023-04-10T05:27:00.824Z,62.34
2023-04-10T05:29:41.860Z,62.46
2023-04-10T05:32:15.568Z,63.06
2023-04-10T05:34:44.143Z,63.28
2023-04-10T05:37:13.465Z,62.34
2023-04-10T05:39:48.703Z,62.25
2023-04-10T05:42:21.549Z,62.38
2023-04-10T05:44:52.630Z,63.27
2023-04-10T05:47:22.920Z,63.21
2023-04-10T05:49:57.606Z,63.76
2023-04-10T05:52:25.422Z,63.61
2023-04-10T05:55:04.836Z,63.63
2023-04-10T05:57:36.130Z,62.79
2023-04-10T06:00:09.007Z,63.01
2023-04-10T06:02:47.076Z,63.04
2023-04-10T06:05:25.749Z,61.80
2023-04-10T06:08:02.583Z,61.92
2023-04-10T06:10:32.268Z,61.36
2023-04-10T06:13:10.638Z,60.96
2023-04-10T06:15:51.535Z,60.22
2023-04-10T06:18:29.622Z,59.64
2023-04-10T06:21:05.714Z,58.90
2023-04-10T06:23:36.137Z,58.82
2023-04-10T06:26:12.664Z,58.72
2023-04-10T06:28:42.681Z,58.78
2023-04-10T06:31:15.119Z,57.83
2023-04-10T06:33:46.863Z,57.44
2023-04-10T06:36:21.245Z,57.17
2023-04-10T06:38:56.831Z,56.51
2023-04-10T06:41:30.581Z,56.59
2023-04-10T06:44:08.727Z,56.53
2023-04-10T06:46:37.172Z,55.09
2023-04-10T06:49:12.727Z,54.41
2023-04-10T06:51:48.720Z,54.23
2023-04-10T06:54:17.695Z,53.92
2023-04-10T06:56:47.120Z,53.57
2023-04-10T07:04:34.884Z,52.28
2023-04-10T07:07:03.062Z,53.06
2023-04-10T07:09:32.710Z,53.06
2023-04-10T07:12:01.083Z,50.97
2023-04-10T07:14:31.081Z,50.70
2023-04-10T07:17:00.622Z,50.17
2023-04-10T07:19:29.364Z,50.09
2023-04-10T07:21:57.869Z,49.44
2023-04-10T07:24:39.793Z,48.03
2023-04-10T07:27:24.722Z,49.66
2023-04-10T07:29:57.607Z,48.73
2023-04-10T07:32:25.391Z,48.64
2023-04-10T07:37:31.934Z,48.16
2023-04-10T07:40:04.190Z,46.96
2023-04-10T07:42:35.115Z,47.36
2023-04-10T07:45:04.970Z,45.92
2023-04-10T07:47:41.737Z,45.52
2023-04-10T07:50:18.722Z,45.80
2023-04-10T07:52:49.133Z,45.26
2023-04-10T07:55:19.669Z,44.22
2023-04-10T07:57:54.818Z,44.04
2023-04-10T08:00:27.691Z,44.30
2023-04-10T08:03:00.093Z,40.79
2023-04-10T08:05:28.335Z,42.10
2023-04-10T08:07:58.695Z,39.29
2023-04-10T08:10:27.652Z,40.78
2023-04-10T08:15:46.391Z,38.21
2023-04-10T08:18:21.692Z,37.54
2023-04-10T08:20:49.141Z,37.01
2023-04-10T08:23:31.720Z,36.87
2023-04-10T08:25:59.981Z,35.97
2023-04-10T08:28:30.614Z,37.26
2023-04-10T08:31:05.687Z,35.82
2023-04-10T08:36:19.900Z,36.57
2023-04-10T08:38:49.874Z,36.50
2023-04-10T08:43:53.865Z,36.16
2023-04-10T08:46:27.744Z,39.38
2023-04-10T08:49:02.878Z,36.71
2023-04-10T08:51:39.626Z,37.73
2023-04-10T08:54:20.169Z,37.98
2023-04-10T08:56:51.983Z,36.32
2023-04-10T08:59:23.218Z,36.58
2023-04-10T09:02:03.424Z,36.15
2023-04-10T09:04:34.072Z,35.82
2023-04-10T09:07:12.710Z,36.09
2023-04-10T09:09:43.806Z,34.96
2023-04-10T09:12:13.070Z,35.85
2023-04-10T09:14:42.690Z,35.64
2023-04-10T09:17:20.913Z,35.66
2023-04-10T09:19:54.929Z,35.25
2023-04-10T09:22:36.543Z,34.03
2023-04-10T09:25:08.165Z,33.19
2023-04-10T09:27:45.690Z,33.06
2023-04-10T09:32:57.381Z,32.20
2023-04-10T09:35:38.408Z,33.02
2023-04-10T09:38:18.595Z,31.65
2023-04-10T09:40:54.880Z,32.01
2023-04-10T09:43:31.755Z,32.75
2023-04-10T09:46:01.531Z,31.87
2023-04-10T09:48:31.605Z,33.39
2023-04-10T09:51:02.058Z,32.56
2023-04-10T09:53:31.451Z,32.60
2023-04-10T09:56:00.761Z,34.59
2023-04-10T09:58:28.845Z,33.46
2023-04-10T10:00:59.858Z,31.78
2023-04-10T10:03:40.848Z,32.63
2023-04-10T10:06:14.728Z,33.89
2023-04-10T10:08:50.740Z,32.66
2023-04-10T10:11:21.637Z,32.18
2023-04-10T10:13:52.638Z,33.26
2023-04-10T10:16:29.883Z,30.58
2023-04-10T10:19:02.735Z,31.30
2023-04-10T10:21:37.667Z,31.48
2023-04-10T10:24:08.810Z,32.69
2023-04-10T10:26:40.486Z,30.94
2023-04-10T10:29:15.688Z,31.03
2023-04-10T10:31:46.317Z,31.60
2023-04-10T10:34:19.805Z,31.38
2023-04-10T10:36:50.998Z,30.77
2023-04-10T10:39:40.794Z,31.71
2023-04-10T10:42:23.965Z,33.83
2023-04-10T10:45:10.450Z,32.20
2023-04-10T10:47:51.887Z,31.92
2023-04-10T10:50:24.948Z,31.75
2023-04-10T10:52:55.798Z,31.51
2023-04-10T10:55:32.717Z,31.05
2023-04-10T10:58:08.790Z,30.80
2023-04-10T11:00:46.591Z,31.37
2023-04-10T11:03:16.045Z,34.08
2023-04-10T11:05:58.691Z,37.20
2023-04-10T11:08:36.030Z,37.47
2023-04-10T11:11:27.754Z,36.91
2023-04-10T11:14:04.976Z,39.93
2023-04-10T11:16:36.780Z,36.52
2023-04-10T11:19:14.778Z,37.00
2023-04-10T11:21:51.364Z,36.57
2023-04-10T11:24:19.805Z,33.34
2023-04-10T11:26:51.838Z,35.28
2023-04-10T11:29:29.950Z,34.83
2023-04-10T11:32:05.816Z,34.35
2023-04-10T11:34:44.175Z,32.73
2023-04-10T11:37:23.331Z,33.88
2023-04-10T11:40:11.713Z,34.71
2023-04-10T11:42:42.646Z,33.00
2023-04-10T11:45:28.848Z,34.35
2023-04-10T11:47:56.815Z,34.59
2023-04-10T11:53:07.735Z,34.50
2023-04-10T11:55:43.794Z,34.36
2023-04-10T11:58:22.155Z,34.71
2023-04-10T12:00:56.550Z,35.19
2023-04-10T12:03:33.816Z,36.45
2023-04-10T12:06:01.964Z,36.30
2023-04-10T12:08:33.140Z,35.75
2023-04-10T12:11:06.741Z,35.70
2023-04-10T12:13:34.687Z,36.78
2023-04-10T12:18:55.148Z,34.73
2023-04-10T12:21:37.688Z,35.34
2023-04-10T12:24:05.861Z,34.97
2023-04-10T12:26:36.433Z,36.56
2023-04-10T12:29:06.374Z,37.41
2023-04-10T12:31:34.857Z,37.73
2023-04-10T12:34:17.643Z,37.72
2023-04-10T12:36:51.715Z,37.21
2023-04-10T12:39:24.761Z,37.93
2023-04-10T12:42:04.853Z,39.16
2023-04-10T12:44:40.709Z,37.98
2023-04-10T12:47:10.280Z,37.53
2023-04-10T12:49:40.666Z,38.08
2023-04-10T12:52:22.756Z,37.87
2023-04-10T12:54:55.724Z,36.99
2023-04-10T12:57:32.719Z,37.39
2023-04-10T13:00:15.250Z,37.73
2023-04-10T13:02:46.909Z,37.32
2023-04-10T13:05:25.753Z,37.51
2023-04-10T13:07:55.046Z,36.79
2023-04-10T13:13:01.105Z,34.29
2023-04-10T13:15:35.024Z,35.80
2023-04-10T13:18:05.714Z,34.67
2023-04-10T13:20:41.359Z,35.24
2023-04-10T13:25:58.278Z,35.35
2023-04-10T13:28:26.813Z,35.51
2023-04-10T13:31:00.810Z,35.74
2023-04-10T13:33:36.535Z,35.26
2023-04-10T13:36:06.994Z,34.09
2023-04-10T13:41:17.708Z,34.11
2023-04-10T13:43:52.110Z,35.43
2023-04-10T13:46:19.882Z,34.61
2023-04-10T13:48:48.139Z,31.65
2023-04-10T13:51:18.187Z,32.76
2023-04-10T13:53:50.772Z,32.48
2023-04-10T13:56:19.879Z,35.33
2023-04-10T13:58:51.978Z,34.74
2023-04-10T14:04:11.673Z,32.74
2023-04-10T14:06:51.715Z,33.83
2023-04-10T14:12:09.629Z,31.73
2023-04-10T14:14:44.240Z,31.27
2023-04-10T14:19:51.756Z,31.70
2023-04-10T14:25:11.966Z,31.13
2023-04-10T14:27:50.880Z,32.47
2023-04-10T14:30:19.095Z,34.08
2023-04-10T14:32:57.830Z,33.71
2023-04-10T14:35:31.684Z,32.24
2023-04-10T14:38:03.729Z,32.84
2023-04-10T14:40:51.891Z,31.97
2023-04-10T14:43:20.868Z,31.68
2023-04-10T14:45:54.502Z,32.09
2023-04-10T14:48:30.353Z,31.41
2023-04-10T14:51:05.643Z,31.61
2023-04-10T14:53:40.233Z,31.32
2023-04-10T14:56:12.599Z,30.63
2023-04-10T14:58:40.813Z,32.36
2023-04-10T15:01:16.977Z,33.41
2023-04-10T15:03:49.255Z,32.56
2023-04-10T15:06:28.336Z,31.22
2023-04-10T15:11:38.148Z,31.14
2023-04-10T15:14:18.181Z,31.73
2023-04-10T15:19:28.078Z,31.55
2023-04-10T15:21:58.055Z,31.76
2023-04-10T15:24:30.692Z,32.08
2023-04-10T15:27:11.658Z,32.26
2023-04-10T15:29:49.839Z,31.76
2023-04-10T15:32:25.059Z,32.13
2023-04-10T15:34:59.798Z,32.79
2023-04-10T15:37:34.903Z,32.47
2023-04-10T15:40:14.064Z,32.26
2023-04-10T15:42:54.834Z,31.11
2023-04-10T15:45:23.633Z,31.69
2023-04-10T15:47:55.153Z,31.96
2023-04-10T15:55:46.679Z,31.48
2023-04-10T15:58:16.653Z,32.26
2023-04-10T16:00:44.471Z,31.77
2023-04-10T16:03:18.808Z,32.18
2023-04-10T16:08:28.055Z,32.23
2023-04-10T16:10:56.258Z,32.86
2023-04-10T16:13:33.331Z,32.80
2023-04-10T16:18:47.613Z,32.98
2023-04-10T16:21:22.697Z,32.16
2023-04-10T16:26:41.307Z,31.94
2023-04-10T16:29:10.997Z,32.85
2023-04-10T16:31:38.841Z,31.76
2023-04-10T16:34:13.133Z,31.78
2023-04-10T16:39:40.738Z,32.65
2023-04-10T16:42:09.871Z,32.89
2023-04-10T16:44:39.038Z,31.52
2023-04-10T16:47:21.033Z,31.80
2023-04-10T16:49:49.787Z,32.27
2023-04-10T16:52:19.087Z,33.15
2023-04-10T16:54:46.912Z,32.55
2023-04-10T16:57:27.056Z,32.68
2023-04-10T17:00:12.755Z,33.20
2023-04-10T17:02:43.235Z,33.52
2023-04-10T17:05:12.984Z,34.18
2023-04-10T17:07:49.742Z,33.06
2023-04-10T17:13:11.112Z,33.02
2023-04-10T17:15:39.952Z,33.07
2023-04-10T17:20:52.592Z,34.05
2023-04-10T17:23:20.489Z,33.26
2023-04-10T17:25:53.877Z,33.67
2023-04-10T17:28:22.300Z,34.00
2023-04-10T17:31:04.164Z,34.61
2023-04-10T17:33:38.130Z,33.79
2023-04-10T17:44:15.673Z,35.38
2023-04-10T17:46:43.733Z,35.26
2023-04-10T17:49:26.033Z,34.81
2023-04-10T17:52:04.431Z,34.76
2023-04-10T17:57:14.956Z,34.97
2023-04-10T17:59:45.199Z,34.91
2023-04-10T18:02:25.857Z,34.72
2023-04-10T18:05:05.759Z,36.64
2023-04-10T18:07:45.058Z,36.79
2023-04-10T18:10:17.221Z,37.13
2023-04-10T18:12:53.704Z,37.73
2023-04-10T18:15:30.676Z,36.90
2023-04-10T18:18:06.881Z,36.80
2023-04-10T18:20:41.382Z,37.58
2023-04-10T18:23:17.968Z,37.86
2023-04-10T18:25:57.033Z,38.14
2023-04-10T18:28:32.184Z,37.84
2023-04-10T18:31:06.907Z,39.31
2023-04-10T18:33:38.066Z,39.70
2023-04-10T18:36:08.012Z,39.50
2023-04-10T18:38:41.950Z,39.42
2023-04-10T18:41:16.727Z,40.06
2023-04-10T18:43:57.414Z,40.53
2023-04-10T18:46:38.063Z,40.32
2023-04-10T18:49:23.762Z,40.34
2023-04-10T18:51:59.838Z,40.64
2023-04-10T18:54:29.230Z,41.35
2023-04-10T18:57:01.038Z,42.40
2023-04-10T18:59:34.958Z,42.48
2023-04-10T19:04:52.031Z,43.14
2023-04-10T19:07:22.107Z,43.84
2023-04-10T19:09:56.030Z,43.70
2023-04-10T19:12:30.867Z,43.75
2023-04-10T19:14:59.657Z,43.31
2023-04-10T19:17:39.645Z,43.72
2023-04-10T19:20:08.724Z,45.17
2023-04-10T19:22:40.340Z,45.75
2023-04-10T19:25:15.981Z,45.56
2023-04-10T19:27:57.112Z,45.42
2023-04-10T19:30:26.827Z,44.97
2023-04-10T19:33:06.786Z,46.58
2023-04-10T19:35:34.638Z,46.14
2023-04-10T19:40:51.814Z,47.43
2023-04-10T19:43:19.300Z,48.18
2023-04-10T19:45:53.461Z,47.98
2023-04-10T19:48:21.278Z,48.22
2023-04-10T19:50:51.388Z,48.71
2023-04-10T19:56:08.404Z,48.53
2023-04-10T19:58:47.027Z,48.62
2023-04-10T20:01:14.869Z,49.40
2023-04-10T20:03:43.996Z,47.63
2023-04-10T20:06:15.167Z,47.89
2023-04-10T20:08:57.804Z,48.63
2023-04-10T20:11:31.720Z,51.65
2023-04-10T20:13:59.723Z,52.16
2023-04-10T20:16:27.451Z,52.35
2023-04-10T20:19:01.795Z,51.67
2023-04-10T20:21:32.322Z,51.15
2023-04-10T20:24:00.037Z,50.52
2023-04-10T20:29:08.020Z,50.65
2023-04-10T20:31:36.333Z,50.90
2023-04-10T20:34:04.552Z,50.83
2023-04-10T20:36:34.846Z,50.81
2023-04-10T20:39:02.701Z,51.28
2023-04-10T20:41:30.927Z,50.79
2023-04-10T20:44:04.861Z,50.39
2023-04-10T20:46:35.088Z,50.14
2023-04-10T20:49:03.019Z,50.49
2023-04-10T20:51:30.725Z,50.24
2023-04-10T20:54:00.172Z,50.34
2023-04-10T20:56:40.293Z,50.14
2023-04-10T20:59:11.858Z,50.63
2023-04-10T21:01:40.070Z,50.43
2023-04-10T21:04:09.146Z,51.54
2023-04-10T21:06:39.423Z,51.66
2023-04-10T21:09:09.959Z,51.69
2023-04-10T21:11:45.682Z,51.93
2023-04-10T21:14:13.927Z,52.41
2023-04-10T21:16:42.950Z,52.81
2023-04-10T21:19:11.749Z,53.57
2023-04-10T21:21:42.278Z,52.11
2023-04-10T21:24:09.830Z,53.07
2023-04-10T21:26:37.457Z,53.19
2023-04-10T21:29:11.788Z,53.71
2023-04-10T21:31:41.217Z,53.59
2023-04-10T21:34:10.768Z,53.20
2023-04-10T21:36:42.711Z,53.74
2023-04-10T21:39:12.717Z,53.85
2023-04-10T21:41:40.867Z,54.35
2023-04-10T21:44:08.982Z,52.62
2023-04-10T21:49:12.088Z,54.09
2023-04-10T21:51:41.355Z,54.43
2023-04-10T21:54:10.826Z,54.67
2023-04-10T21:56:41.163Z,55.00
2023-04-10T21:59:11.214Z,54.96
2023-04-10T22:01:41.892Z,55.45
2023-04-10T22:04:11.877Z,55.63
2023-04-10T22:06:39.816Z,55.63
2023-04-10T22:09:07.579Z,55.38
2023-04-10T22:11:39.356Z,55.30
2023-04-10T22:14:15.369Z,55.91
2023-04-10T22:16:46.783Z,55.79
2023-04-10T22:19:16.782Z,55.75
2023-04-10T22:21:45.087Z,56.17
2023-04-10T22:24:14.888Z,56.34
2023-04-10T22:26:46.043Z,56.18
2023-04-10T22:29:16.982Z,56.82
2023-04-10T22:31:44.803Z,55.93
2023-04-10T22:34:12.492Z,55.84
2023-04-10T22:36:40.510Z,56.54
2023-04-10T22:39:07.962Z,55.86
2023-04-10T22:41:35.605Z,55.57
2023-04-10T22:44:03.890Z,55.87
2023-04-10T22:46:31.990Z,56.36
2023-04-10T22:49:01.949Z,56.07
2023-04-10T22:51:29.659Z,56.18
2023-04-10T22:53:57.439Z,56.22
2023-04-10T22:56:29.789Z,56.43
2023-04-10T22:59:00.792Z,56.96
2023-04-10T23:01:29.653Z,57.06
2023-04-10T23:03:57.074Z,57.16
2023-04-10T23:06:24.793Z,57.02
2023-04-10T23:08:56.478Z,57.10
2023-04-10T23:11:25.829Z,56.30
2023-04-10T23:13:53.691Z,57.49
2023-04-10T23:16:21.202Z,56.37
2023-04-10T23:18:49.473Z,57.10
2023-04-10T23:21:17.528Z,57.34
2023-04-10T23:23:44.835Z,58.02
2023-04-10T23:26:12.484Z,58.12
2023-04-10T23:28:40.391Z,57.75
2023-04-10T23:31:09.260Z,57.77
2023-04-10T23:33:36.983Z,57.90
2023-04-10T23:36:05.014Z,57.74
2023-04-10T23:38:32.637Z,57.54
2023-04-10T23:41:03.063Z,57.49
2023-04-10T23:43:31.747Z,57.54
2023-04-10T23:46:00.058Z,58.41
2023-04-10T23:48:27.377Z,58.17
2023-04-10T23:51:07.792Z,57.82
2023-04-10T23:53:35.263Z,57.99
2023-04-10T23:56:03.055Z,58.31
2023-04-10T23:58:31.639Z,58.55
